ADDS METAR Data INFO
IDs: Format: Raw Decoded Include TAF

Data at: 0433 UTC 21 Nov 2017

KT20 210415Z AUTO 17003KT 3SM BR CLR 14/11 A3001 RMK AO2 T01360114
KT20 210355Z AUTO 15006KT 2 1/2SM BR CLR 13/11 A3001 RMK AO2 T01330111
KT20 210335Z AUTO 16005KT 2 1/2SM HZ CLR 14/11 A3002 RMK AO2 T01380112
KT20 210315Z AUTO 15005KT 2 1/2SM HZ CLR 14/11 A3003 RMK AO2 T01400110
KT20 210255Z AUTO 16005KT 2 1/2SM HZ CLR 15/11 A3003 RMK AO2 T01450110
KT20 210235Z AUTO 16006KT 3SM HZ CLR 15/11 A3003 RMK AO2 T01450108
KT20 210215Z AUTO 16006KT 3SM HZ CLR 15/11 A3003 RMK AO2 T01470106
KT20 210155Z AUTO 16007KT 2 1/2SM HZ CLR 15/11 A3003 RMK AO2 T01500105
KT20 210135Z AUTO 16005KT 2 1/2SM HZ CLR 16/10 A3003 RMK AO2 T01550104
KT20 210115Z AUTO 15006KT 3SM HZ CLR 16/10 A3003 RMK AO2 T01600103
KT20 210055Z AUTO 15006KT 2 1/2SM HZ CLR 16/10 A3003 RMK AO2 T01610101
KT20 210035Z AUTO 15006KT 3SM HZ CLR 17/10 A3003 RMK AO2 T01660100
KT20 210015Z AUTO 15007KT 3SM HZ CLR 17/10 A3003 RMK AO2 T01700097
KT20 202355Z AUTO 15006KT 2 1/2SM HZ CLR 18/10 A3003 RMK AO2 T01760095 10219 20176
KT20 202335Z AUTO 16005KT 2 1/2SM HZ CLR 18/09 A3003 RMK AO2 T01820091
KT20 202315Z AUTO 17006KT 5SM HZ CLR 19/09 A3003 RMK AO2 T01900087
KT20 202255Z AUTO 19005KT 10SM CLR 20/08 A3002 RMK AO2 T02020080
KT20 202235Z AUTO 18011G14KT 10SM SCT060 21/08 A3002 RMK AO2 T02070080
KT20 202215Z AUTO 19007KT 10SM SCT060 21/08 A3002 RMK AO2 T02130078
KT20 202155Z AUTO 18012G16KT 7SM SCT060 22/07 A3003 RMK AO2 T02150074
KT20 202135Z AUTO 20012G15KT 10SM CLR 22/08 A3003 RMK AO2 T02160076
KT20 202115Z AUTO 19010KT 10SM CLR 21/07 A3003 RMK AO2 T02130073
KT20 202055Z AUTO 20011G16KT 10SM CLR 22/08 A3004 RMK AO2 T02180075
KT20 202035Z AUTO 21007G17KT 10SM CLR 22/07 A3005 RMK AO2 T02160070
KT20 202015Z AUTO 20010G19KT 7SM CLR 22/07 A3006 RMK AO2 T02160070
KT20 201955Z AUTO 22011G17KT 10SM CLR 22/07 A3007 RMK AO2 T02190069
KT20 201935Z AUTO 18012G16KT 10SM CLR 22/06 A3009 RMK AO2 T02170061
KT20 201915Z AUTO 19009KT 10SM CLR 22/06 A3010 RMK AO2 T02150056
KT20 201855Z AUTO 19009KT 7SM CLR 21/05 A3011 RMK AO2 T02110049
KT20 201835Z AUTO 19004KT 7SM CLR 21/04 A3013 RMK AO2 T02080042
KT20 201815Z AUTO 18007KT 7SM CLR 20/04 A3015 RMK AO2 T02000036
KT20 201755Z AUTO 18004KT 10SM SCT110 19/02 A3017 RMK AO2 T01930023 10196 20040
KT20 201735Z AUTO 19007KT 10SM SCT110 19/02 A3019 RMK AO2 T01900021
KT20 201715Z AUTO 17003KT 10SM CLR 19/01 A3020 RMK AO2 T01860010
KT20 201655Z AUTO 12003KT 10SM CLR 18/02 A3020 RMK AO2 T01770021
KT20 201635Z AUTO 14003KT 10SM CLR 17/02 A3021 RMK AO2 LTG DSNT S T01720015
KT20 201615Z AUTO 14005KT 10SM CLR 17/03 A3021 RMK AO2 LTG DSNT SE AND S T01700026
KT20 201555Z AUTO 13006KT 10SM SCT120 16/03 A3022 RMK AO2 T01550027
KT20 201535Z AUTO 11006KT 10SM BKN120 15/04 A3022 RMK AO2 LTG DSNT S T01480037
KT20 201515Z AUTO 12004KT 10SM SCT120 13/03 A3023 RMK AO2 LTG DSNT S T01300034
KT20 201455Z AUTO 00000KT 10SM CLR 11/05 A3023 RMK AO2 LTG DSNT S T01050052
KT20 201435Z AUTO 00000KT 10SM CLR 07/05 A3023 RMK AO2 T00720050
KT20 201415Z AUTO 00000KT 10SM CLR 06/04 A3022 RMK AO2 T00590043
KT20 201355Z AUTO 00000KT 10SM CLR 05/04 A3021 RMK AO2 T00510039
KT20 201335Z AUTO 00000KT 10SM CLR 04/03 A3022 RMK AO2 T00440032
KT20 201315Z AUTO 00000KT 10SM CLR 04/03 A3020 RMK AO2 T00430027
KT20 201255Z AUTO 00000KT 10SM CLR 05/03 A3019 RMK AO2 T00470028
KT20 201235Z AUTO 00000KT 10SM CLR 05/03 A3019 RMK AO2 T00460030
KT20 201215Z AUTO 00000KT 10SM CLR 05/03 A3019 RMK AO2 T00450028
KT20 201155Z AUTO 00000KT 10SM CLR 05/03 A3019 RMK AO2 T00450025 10085 20045
KT20 201135Z AUTO 00000KT 10SM CLR 05/03 A3019 RMK AO2 T00470027
KT20 201115Z AUTO 00000KT 10SM CLR 05/03 A3019 RMK AO2 T00450026
KT20 201055Z AUTO 00000KT 10SM CLR 05/02 A3019 RMK AO2 T00460024
KT20 201035Z AUTO 00000KT 10SM CLR 05/02 A3019 RMK AO2 T00500023
KT20 201015Z AUTO 00000KT 10SM CLR 06/02 A3019 RMK AO2 T00600024
KT20 200955Z AUTO 00000KT 10SM CLR 07/01 A3019 RMK AO2 T00650013
KT20 200935Z AUTO 08004KT 10SM CLR 07/02 A3019 RMK AO2 T00710017
KT20 200915Z AUTO 06003KT 10SM CLR 06/04 A3020 RMK AO2 T00620041
KT20 200855Z AUTO 00000KT 10SM CLR 06/04 A3021 RMK AO2 T00550041
KT20 200835Z AUTO 00000KT 10SM CLR 06/04 A3021 RMK AO2 T00600037
KT20 200815Z AUTO 00000KT 10SM CLR 06/03 A3021 RMK AO2 T00620031
KT20 200755Z AUTO 00000KT 10SM CLR 08/03 A3021 RMK AO2 T00750025
KT20 200735Z AUTO 00000KT 10SM CLR 08/03 A3022 RMK AO2 T00780030
KT20 200715Z AUTO 00000KT 10SM CLR 07/04 A3022 RMK AO2 T00740041
KT20 200655Z AUTO 00000KT 10SM CLR 07/04 A3023 RMK AO2 T00710039
KT20 200635Z AUTO 00000KT 10SM CLR 08/03 A3022 RMK AO2 T00750030
KT20 200615Z AUTO 00000KT 10SM CLR 08/03 A3022 RMK AO2 T00840027
KT20 200555Z AUTO 00000KT 10SM CLR 08/03 A3022 RMK AO2 T00840030 10139 20081 401920055
KT20 200535Z AUTO 00000KT 10SM CLR 08/03 A3023 RMK AO2 T00810033
KT20 200515Z AUTO 00000KT 10SM CLR 08/03 A3023 RMK AO2 T00810033
KT20 200455Z AUTO 00000KT 10SM CLR 09/02 A3023 RMK AO2 T00860022
KT20 200435Z AUTO 09003KT 10SM CLR 10/02 A3023 RMK AO2 T01010015
KT20 200415Z AUTO 07003KT 10SM CLR 11/02 A3024 RMK AO2 T01050015
KT20 200355Z AUTO 00000KT 10SM CLR 10/02 A3024 RMK AO2 T00970016
KT20 200335Z AUTO 00000KT 10SM CLR 10/02 A3025 RMK AO2 T01030015
KT20 200315Z AUTO 00000KT 10SM CLR 13/00 A3024 RMK AO2 T01280000
KT20 200255Z AUTO 06003KT 10SM CLR 13/00 A3024 RMK AO2 T01280001
KT20 200235Z AUTO 05003KT 10SM CLR 12/00 A3024 RMK AO2 T01230000
KT20 200215Z AUTO 00000KT 10SM CLR 12/00 A3024 RMK AO2 T01220001
KT20 200155Z AUTO 03003KT 10SM CLR 12/00 A3024 RMK AO2 T01200001
KT20 200135Z AUTO 00000KT 10SM CLR 13/00 A3024 RMK AO2 T01280000
KT20 200115Z AUTO 02003KT 10SM CLR 12/00 A3024 RMK AO2 T01210001
KT20 200055Z AUTO 02004KT 10SM CLR 13/00 A3024 RMK AO2 T01250000
KT20 200035Z AUTO 04003KT 10SM CLR 13/00 A3023 RMK AO2 T01300000
KT20 200015Z AUTO 03004KT 10SM CLR 13/00 A3023 RMK AO2 T01310001
KT20 192355Z AUTO 03004KT 10SM CLR 14/00 A3023 RMK AO2 T01410000 10192 20141
KT20 192335Z AUTO 03003KT 10SM CLR 15/00 A3022 RMK AO2 T01460000
KT20 192315Z AUTO 03003KT 10SM CLR 16/00 A3023 RMK AO2 T01590000
KT20 192255Z AUTO 00000KT 10SM CLR 17/M01 A3023 RMK AO2 T01691007
KT20 192235Z AUTO 34003KT 10SM CLR 18/M02 A3023 RMK AO2 T01781016
KT20 192215Z AUTO 01004KT 10SM CLR 18/M02 A3023 RMK AO2 T01811020
KT20 192155Z AUTO 36004KT 10SM CLR 19/M01 A3023 RMK AO2 T01861015
KT20 192135Z AUTO 33004KT 10SM CLR 19/M01 A3024 RMK AO2 T01851012
KT20 192115Z AUTO 00000KT 10SM CLR 19/M01 A3024 RMK AO2 T01851013
KT20 192055Z AUTO 35004KT 10SM CLR 19/M01 A3024 RMK AO2 T01901015
KT20 192035Z AUTO 35006KT 10SM CLR 19/M01 A3025 RMK AO2 T01881012
KT20 192015Z AUTO 34007KT 10SM CLR 19/M01 A3025 RMK AO2 T01881011
KT20 191955Z AUTO 35005KT 10SM CLR 19/M01 A3026 RMK AO2 T01901009
KT20 191935Z AUTO 00000KT 10SM CLR 19/00 A3027 RMK AO2 T01881004
KT20 191915Z AUTO 02005G15KT 10SM CLR 19/M01 A3028 RMK AO2 T01851006
KT20 191855Z AUTO 35011G14KT 10SM CLR 18/00 A3030 RMK AO2 T01830002
KT20 191835Z AUTO 04011KT 360V070 10SM CLR 18/00 A3031 RMK AO2 T01800004
KT20 191815Z AUTO 03010G15KT 360V060 10SM CLR 18/01 A3032 RMK AO2 T01820007
KT20 191755Z AUTO 03009G14KT 10SM CLR 17/01 A3034 RMK AO2 T01740008 10175 20055
KT20 191735Z AUTO 03008G15KT 10SM CLR 17/01 A3035 RMK AO2 T01720007
KT20 191715Z AUTO 04008G16KT 10SM CLR 17/01 A3037 RMK AO2 T01670008
KT20 191655Z AUTO 02008G15KT 10SM CLR 17/01 A3038 RMK AO2 T01650010
KT20 191635Z AUTO 05012G16KT 10SM CLR 17/01 A3039 RMK AO2 T01670009